Details From EGCC - Manchester Intl
To EGKB - Biggin Hill
Flight Number -
Tags generated
Created
Modified
Stats Distance 148 nm / 274 km
Max Altitude 9,800 ft / 2,987 m
Waypoints 3
Social Downloads 0
Likes 1
Share VATSIM

Download

Looking for another format? Having issues loading an existing format? Contact us
Advertisement - Login to hide

Notes

Basic altitude profile: - Ascent Rate: 2500ft/min - Ascent Speed: 250kts - Cruise Altitude: 90ft - Cruise Speed: 250kts - Descent Rate: 1500ft/min - Descent Speed: 250kts Options: - Use NATs: yes - Use PACOTS: yes - Use low airways: yes - Use high airways: yes

Route

EGCC WOBUN EGKB

ID Type Via Altitude Latitude Longitude Leg Dist Tot Dist Heading (true) Name
O EGCC APT - 0 ft / 0 m 53.34714˚ -2.28395˚ - 0 nm - Manchester Intl
WOBUN FIX - 9,800 ft / 2,987 m 52.01944˚ -0.73333˚ 97 nm 97 nm 144° / 145° -
O EGKB APT - 0 ft / 0 m 51.32671˚ 0.03288˚ 50 nm 148 nm 145° / 146° Biggin Hill

Altitude Profile

Advertisement - Login to hide

EGCC

Details ICAO EGCC (MAN)
Name Manchester Intl
Region United Kingdom
Timezone Europe/London (UTC+0.0)
Stats Elevation 257 ft / 78 m (AMSL)
Location 53.347141° -2.283954°
Runways 2
Magnetic Variation 1.463° W

METAR

EGCC 111650Z AUTO 30005KT 9999 NCD 01/M03 Q0992 NOSIG

Decode

TAF

TAF EGCC 111102Z 1112/1218 VRB04KT 9999 FEW045 TEMPO 1116/1119 8000 BECMG 1119/1122 6000 BECMG 1122/1124 4000 BR PROB30 1200/1212 0300 FZFG VV/// BECMG 1212/1215 6000 NSW

Decode

Departure Runways

ID Width Length Bearing (true) Bearing (mag) Surface Threshold Offset Overrun Length
05L 151 ft / 46 m 9,981 ft / 3,042 m 50.99° 52.45° Asphalt 1,401 ft / 427 m 0 ft / 0 m
05R 151 ft / 46 m 9,952 ft / 3,033 m 50.97° 52.43° Asphalt 0 ft / 0 m 26 ft / 8 m
23L 151 ft / 46 m 9,952 ft / 3,033 m 231.00° 232.46° Asphalt 561 ft / 171 m 0 ft / 0 m
23R 151 ft / 46 m 9,981 ft / 3,042 m 231.02° 232.48° Asphalt 597 ft / 182 m 0 ft / 0 m

EGKB

Details ICAO EGKB (BQH)
Name Biggin Hill
Region United Kingdom
Timezone Europe/London (UTC+0.0)
Stats Elevation 598 ft / 182 m (AMSL)
Location 51.326710° 0.032876°
Runways 2
Magnetic Variation 0.375° W

METAR

EGKB 111650Z 34015KT 9999 FEW035 01/M00 Q0987 R21/6100

Decode

TAF

Not found

Destination Runways

ID Width Length Bearing (true) Bearing (mag) Surface Threshold Offset Overrun Length
03 148 ft / 45 m 5,915 ft / 1,803 m 25.53° 25.90° Asphalt 804 ft / 245 m 0 ft / 0 m
11 59 ft / 18 m 2,579 ft / 786 m 105.47° 105.84° Asphalt 0 ft / 0 m 0 ft / 0 m
21 148 ft / 45 m 5,915 ft / 1,803 m 205.53° 205.90° Asphalt 0 ft / 0 m 0 ft / 0 m
29 59 ft / 18 m 2,579 ft / 786 m 285.48° 285.85° Asphalt 0 ft / 0 m 0 ft / 0 m

Approach Navaids

Runway Type Ident Frequency Range Bearing (true) Bearing (mag) Slope Elevation
21 Localiser IBGH 109.35 MHz 18 nm / 33 km 205.65° 206.02° - 598 ft / 182 m (AMSL)
21 Glidescope IBGH 109.35 MHz 10 nm / 19 km 205.53° 205.90° 3.00° 598 ft / 182 m (AMSL)
21 DME IBGH 109.35 MHz 18 nm / 33 km - - - 570 ft / 174 m (AMSL)

Popular Alternatives